createdAt,value
2023-04-09T00:02:58.983Z,97410.53
2023-04-09T00:08:01.081Z,97403.50
2023-04-09T00:13:04.349Z,97419.03
2023-04-09T00:18:06.302Z,97411.63
2023-04-09T00:23:08.262Z,97419.69
2023-04-09T00:28:11.550Z,97410.19
2023-04-09T00:33:13.471Z,97411.00
2023-04-09T00:38:15.489Z,97401.28
2023-04-09T00:43:18.753Z,97399.84
2023-04-09T00:48:21.164Z,97405.53
2023-04-09T00:53:23.334Z,97411.13
2023-04-09T00:58:27.124Z,97406.38
2023-04-09T01:03:29.595Z,97410.19
2023-04-09T01:08:38.746Z,97411.38
2023-04-09T01:13:49.171Z,97419.03
2023-04-09T01:18:57.609Z,97421.53
2023-04-09T01:24:09.715Z,97415.66
2023-04-09T01:29:15.480Z,97421.47
2023-04-09T01:34:19.385Z,97425.03
2023-04-09T01:39:22.491Z,97426.88
2023-04-09T01:44:27.486Z,97426.25
2023-04-09T01:49:30.222Z,97427.44
2023-04-09T01:54:32.922Z,97429.69
2023-04-09T01:59:36.210Z,97425.16
2023-04-09T02:04:41.298Z,97427.91
2023-04-09T02:09:46.373Z,97423.75
2023-04-09T02:14:51.968Z,97430.03
2023-04-09T02:19:54.011Z,97424.56
2023-04-09T02:24:55.984Z,97417.09
2023-04-09T02:29:59.251Z,97422.06
2023-04-09T02:35:01.199Z,97412.34
2023-04-09T02:40:04.636Z,97412.19
2023-04-09T02:45:09.201Z,97411.44
2023-04-09T02:50:11.473Z,97410.78
2023-04-09T02:55:13.965Z,97411.25
2023-04-09T03:00:17.272Z,97410.66
2023-04-09T03:05:19.223Z,97414.63
2023-04-09T03:10:21.237Z,97412.28
2023-04-09T03:15:24.546Z,97413.09
2023-04-09T03:20:26.534Z,97426.25
2023-04-09T03:25:28.513Z,97426.72
2023-04-09T03:30:31.792Z,97418.81
2023-04-09T03:35:33.789Z,97425.56
2023-04-09T03:40:36.438Z,97421.34
2023-04-09T03:45:39.764Z,97422.91
2023-04-09T03:50:42.809Z,97422.78
2023-04-09T03:55:44.907Z,97421.53
2023-04-09T04:01:46.942Z,70918.97
2023-04-09T04:06:48.942Z,97440.56
2023-04-09T04:11:50.967Z,97441.22
2023-04-09T04:16:54.247Z,97442.78
2023-04-09T04:21:56.270Z,97449.03
2023-04-09T04:26:58.213Z,97441.63
2023-04-09T04:32:01.599Z,97452.50
2023-04-09T04:37:03.576Z,97458.34
2023-04-09T04:42:05.955Z,97462.53
2023-04-09T04:47:09.438Z,97452.50
2023-04-09T04:52:11.410Z,97467.47
2023-04-09T04:57:13.551Z,97454.44
2023-04-09T05:02:17.051Z,97462.97
2023-04-09T05:07:19.119Z,97459.97
2023-04-09T05:12:21.111Z,97467.84
2023-04-09T05:17:24.748Z,97467.25
2023-04-09T05:22:27.080Z,97474.22
2023-04-09T05:27:29.271Z,97471.94
2023-04-09T05:32:32.828Z,97473.09
2023-04-09T05:37:35.502Z,97477.59
2023-04-09T05:42:37.884Z,70918.97
2023-04-09T05:47:41.249Z,97486.91
2023-04-09T05:53:42.735Z,70918.97
2023-04-09T05:59:43.220Z,70918.97
2023-04-09T06:05:45.109Z,70918.97
2023-04-09T06:11:45.715Z,70918.97
2023-04-09T06:17:46.428Z,70918.97
2023-04-09T06:23:48.321Z,70918.97
2023-04-09T06:29:48.791Z,70918.97
2023-04-09T06:35:49.317Z,70918.97
2023-04-09T06:41:51.156Z,70918.97
2023-04-09T06:47:51.718Z,70918.97
2023-04-09T06:53:52.883Z,70918.97
2023-04-09T06:58:56.394Z,97519.00
2023-04-09T07:03:58.441Z,97514.47
2023-04-09T07:09:00.567Z,97511.44
2023-04-09T07:14:03.847Z,97513.75
2023-04-09T07:19:07.366Z,97511.00
2023-04-09T07:24:09.360Z,97508.25
2023-04-09T07:29:12.651Z,97507.25
2023-04-09T07:34:14.539Z,97508.56
2023-04-09T07:39:17.286Z,97520.72
2023-04-09T07:44:20.568Z,97526.13
2023-04-09T07:49:22.560Z,97515.09
2023-04-09T07:54:25.010Z,97518.41
2023-04-09T07:59:28.532Z,97520.19
2023-04-09T08:04:31.874Z,97525.88
2023-04-09T08:09:33.966Z,97521.91
2023-04-09T08:14:37.264Z,97517.03
2023-04-09T08:19:41.901Z,97532.66
2023-04-09T08:24:44.153Z,97529.66
2023-04-09T08:29:47.456Z,97530.63
2023-04-09T08:34:49.413Z,97540.50
2023-04-09T08:39:51.949Z,97535.59
2023-04-09T08:44:55.249Z,97536.25
2023-04-09T08:49:57.207Z,97534.16
2023-04-09T08:54:59.367Z,97534.69
2023-04-09T09:00:02.888Z,97534.09
2023-04-09T09:05:05.543Z,97532.59
2023-04-09T09:10:08.365Z,97533.06
2023-04-09T09:20:49.886Z,97536.78
2023-04-09T09:25:51.835Z,97532.88
2023-04-09T09:30:53.984Z,97539.22
2023-04-09T09:35:57.845Z,97533.84
2023-04-09T09:41:17.258Z,97529.13
2023-04-09T09:46:21.623Z,97527.53
2023-04-09T09:51:29.815Z,97527.25
2023-04-09T09:56:35.132Z,97514.97
2023-04-09T10:01:37.933Z,97514.38
2023-04-09T10:06:44.154Z,97511.63
2023-04-09T10:11:48.374Z,97511.91
2023-04-09T10:16:51.532Z,97509.66
2023-04-09T10:21:59.411Z,97512.00
2023-04-09T10:27:10.440Z,97502.25
2023-04-09T10:32:13.118Z,97508.03
2023-04-09T10:37:21.157Z,97510.16
2023-04-09T10:42:27.386Z,97497.16
2023-04-09T10:47:33.576Z,97503.31
2023-04-09T10:52:40.882Z,97493.97
2023-04-09T10:57:43.069Z,97492.94
2023-04-09T11:03:20.665Z,97499.31
2023-04-09T11:08:27.710Z,97503.47
2023-04-09T11:13:31.829Z,97503.50
2023-04-09T11:18:35.536Z,97510.69
2023-04-09T11:23:39.698Z,97508.09
2023-04-09T11:28:43.256Z,97510.06
2023-04-09T11:33:46.971Z,97500.25
2023-04-09T11:38:51.513Z,97498.09
2023-04-09T11:43:53.700Z,97500.56
2023-04-09T11:48:56.402Z,97504.53
2023-04-09T11:54:05.758Z,97492.25
2023-04-09T11:59:07.719Z,97501.47
2023-04-09T12:04:10.094Z,97503.31
2023-04-09T12:09:14.254Z,97502.56
2023-04-09T12:14:17.830Z,97494.72
2023-04-09T12:19:21.084Z,97512.53
2023-04-09T12:24:25.936Z,97506.28
2023-04-09T12:29:29.810Z,97510.59
2023-04-09T12:34:31.998Z,97497.97
2023-04-09T12:39:35.372Z,97504.41
2023-04-09T12:44:37.377Z,97499.78
2023-04-09T12:49:41.771Z,97501.97
2023-04-09T12:54:46.958Z,97499.88
2023-04-09T12:59:49.922Z,97495.25
2023-04-09T13:04:52.937Z,97502.13
2023-04-09T13:09:56.940Z,97502.53
2023-04-09T13:14:59.281Z,97495.03
2023-04-09T13:20:01.433Z,97493.50
2023-04-09T13:25:05.709Z,97491.59
2023-04-09T13:30:08.947Z,97484.81
2023-04-09T13:35:13.003Z,97484.81
2023-04-09T13:40:16.407Z,97489.19
2023-04-09T13:45:20.256Z,97483.94
2023-04-09T13:50:22.351Z,97476.59
2023-04-09T13:55:25.792Z,97482.41
2023-04-09T14:00:27.740Z,97481.50
2023-04-09T14:05:29.931Z,97483.19
2023-04-09T14:10:33.253Z,97475.66
2023-04-09T14:15:35.274Z,97485.16
2023-04-09T14:20:38.381Z,97474.09
2023-04-09T14:25:41.733Z,97478.41
2023-04-09T14:30:43.658Z,97474.81
2023-04-09T14:35:45.810Z,97470.38
2023-04-09T14:40:49.203Z,97464.63
2023-04-09T14:45:51.731Z,97459.09
2023-04-09T14:50:53.659Z,97459.38
2023-04-09T14:55:56.980Z,97464.41
2023-04-09T15:00:58.938Z,97456.88
2023-04-09T15:06:00.945Z,97461.16
2023-04-09T15:11:04.851Z,97457.47
2023-04-09T15:16:07.468Z,97458.84
2023-04-09T15:21:09.426Z,97453.00
2023-04-09T15:26:12.803Z,97463.06
2023-04-09T15:31:14.802Z,97462.66
2023-04-09T15:36:16.856Z,97457.41
2023-04-09T15:41:21.869Z,97462.94
2023-04-09T15:46:23.895Z,97466.66
2023-04-09T15:51:27.022Z,97467.84
2023-04-09T15:56:30.172Z,97479.03
2023-04-09T16:01:32.214Z,97469.38
2023-04-09T16:06:34.285Z,97474.75
2023-04-09T16:11:37.675Z,97478.41
2023-04-09T16:16:39.668Z,97481.56
2023-04-09T16:21:44.500Z,97479.75
2023-04-09T16:26:47.895Z,97470.41
2023-04-09T16:31:49.950Z,97481.38
2023-04-09T16:36:51.966Z,97484.78
2023-04-09T16:41:55.855Z,97484.22
2023-04-09T16:46:57.936Z,97483.13
2023-04-09T16:51:59.887Z,97485.66
2023-04-09T16:57:03.445Z,97488.09
2023-04-09T17:02:05.708Z,97492.28
2023-04-09T17:07:07.780Z,97496.75
2023-04-09T17:12:11.270Z,97493.84
2023-04-09T17:17:13.367Z,97497.19
2023-04-09T17:22:17.732Z,97498.50
2023-04-09T17:27:21.018Z,97505.25
2023-04-09T17:32:22.986Z,97517.16
2023-04-09T17:37:27.375Z,97517.03
2023-04-09T17:42:31.081Z,97537.50
2023-04-09T17:47:33.120Z,97540.69
2023-04-09T17:52:37.350Z,97549.66
2023-04-09T17:57:41.541Z,97552.44
2023-04-09T18:02:44.823Z,97558.97
2023-04-09T18:07:46.988Z,97563.38
2023-04-09T18:12:50.648Z,97563.19
2023-04-09T18:17:52.496Z,97577.38
2023-04-09T18:22:55.575Z,97574.63
2023-04-09T18:27:58.862Z,97585.03
2023-04-09T18:33:00.849Z,97585.75
2023-04-09T18:38:02.860Z,97586.53
2023-04-09T18:43:06.480Z,97596.34
2023-04-09T18:48:08.926Z,97595.28
2023-04-09T18:53:11.225Z,97609.09
2023-04-09T18:58:15.649Z,97603.25
2023-04-09T19:03:19.103Z,97615.38
2023-04-09T19:08:22.200Z,97613.16
2023-04-09T19:13:25.674Z,97618.72
2023-04-09T19:18:27.686Z,97617.03
2023-04-09T19:23:30.600Z,97616.88
2023-04-09T19:28:34.208Z,97618.38
2023-04-09T19:33:36.162Z,97616.78
2023-04-09T19:38:38.229Z,97614.88
2023-04-09T19:43:42.372Z,97623.16
2023-04-09T19:48:44.708Z,97619.72
2023-04-09T19:53:47.839Z,97617.66
2023-04-09T19:58:51.729Z,97626.94
2023-04-09T20:03:54.054Z,97622.03
2023-04-09T20:08:56.169Z,97622.44
2023-04-09T20:14:00.126Z,97633.91
2023-04-09T20:19:02.181Z,97630.66
2023-04-09T20:24:04.600Z,97630.91
2023-04-09T20:29:09.790Z,97630.22
2023-04-09T20:34:12.621Z,97635.63
2023-04-09T20:39:14.635Z,97628.66
2023-04-09T20:44:18.016Z,97629.53
2023-04-09T20:49:20.174Z,97634.16
2023-04-09T20:54:23.126Z,97640.03
2023-04-09T20:59:27.496Z,97638.91
2023-04-09T21:04:30.390Z,97631.59
2023-04-09T21:09:34.067Z,97634.88
2023-04-09T21:14:37.387Z,97635.31
2023-04-09T21:19:39.320Z,97627.81
2023-04-09T21:24:41.259Z,97631.75
2023-04-09T21:29:44.561Z,97632.97
2023-04-09T21:34:46.548Z,97632.28
2023-04-09T21:39:48.884Z,97638.59
2023-04-09T21:44:52.440Z,97633.47
2023-04-09T21:49:54.685Z,97636.81
2023-04-09T21:54:56.603Z,97633.88
2023-04-09T21:59:59.879Z,97638.47
2023-04-09T22:05:01.897Z,97637.31
2023-04-09T22:10:04.483Z,97637.91
2023-04-09T22:15:08.922Z,97639.56
2023-04-09T22:20:11.116Z,97642.03
2023-04-09T22:25:13.070Z,97644.38
2023-04-09T22:30:16.412Z,97646.09
2023-04-09T22:35:18.621Z,97644.78
2023-04-09T22:40:20.563Z,97649.78
2023-04-09T22:45:27.660Z,97651.78
2023-04-09T22:50:29.614Z,97648.38
2023-04-09T22:55:31.868Z,97644.47
2023-04-09T23:00:35.424Z,97655.44
2023-04-09T23:05:37.586Z,97658.50
2023-04-09T23:10:39.926Z,97652.84
2023-04-09T23:15:43.269Z,97641.97
2023-04-09T23:20:45.324Z,97645.75
2023-04-09T23:25:47.916Z,97644.72
2023-04-09T23:30:51.164Z,97640.78
2023-04-09T23:35:53.222Z,97636.13
2023-04-09T23:40:55.504Z,97636.88
2023-04-09T23:45:58.751Z,97641.09
2023-04-09T23:51:00.944Z,97629.09
2023-04-09T23:56:03.005Z,97633.44
